sensor_id;sensor_type;location;lat;lon;timestamp;pressure;altitude;pressure_sealevel;temperature;humidity
48156;BME280;35568;48.104;11.782;2023-12-20T00:00:22;95386.02;;;5.95;36.76
48156;BME280;35568;48.104;11.782;2023-12-20T00:02:49;95381.38;;;6.20;37.13
48156;BME280;35568;48.104;11.782;2023-12-20T00:05:16;95377.67;;;5.87;37.38
48156;BME280;35568;48.104;11.782;2023-12-20T00:07:43;95377.05;;;5.77;37.25
48156;BME280;35568;48.104;11.782;2023-12-20T00:10:10;95370.99;;;5.70;37.30
48156;BME280;35568;48.104;11.782;2023-12-20T00:12:37;95365.24;;;5.73;37.36
48156;BME280;35568;48.104;11.782;2023-12-20T00:15:04;95368.03;;;5.52;38.25
48156;BME280;35568;48.104;11.782;2023-12-20T00:17:32;95361.91;;;5.80;37.70
48156;BME280;35568;48.104;11.782;2023-12-20T00:19:59;95355.16;;;6.01;37.69
48156;BME280;35568;48.104;11.782;2023-12-20T00:22:25;95348.89;;;5.79;37.57
48156;BME280;35568;48.104;11.782;2023-12-20T00:24:52;95343.01;;;5.06;38.28
48156;BME280;35568;48.104;11.782;2023-12-20T00:27:21;95342.83;;;5.69;37.75
48156;BME280;35568;48.104;11.782;2023-12-20T00:29:48;95339.40;;;5.78;38.23
48156;BME280;35568;48.104;11.782;2023-12-20T00:32:15;95334.44;;;6.00;37.61
48156;BME280;35568;48.104;11.782;2023-12-20T00:34:43;95338.26;;;6.08;37.42
48156;BME280;35568;48.104;11.782;2023-12-20T00:37:10;95340.53;;;6.17;37.18
48156;BME280;35568;48.104;11.782;2023-12-20T00:39:37;95331.90;;;6.18;36.92
48156;BME280;35568;48.104;11.782;2023-12-20T00:42:04;95327.06;;;6.18;35.79
48156;BME280;35568;48.104;11.782;2023-12-20T00:44:31;95327.19;;;6.14;35.47
48156;BME280;35568;48.104;11.782;2023-12-20T00:46:58;95326.71;;;6.40;33.70
48156;BME280;35568;48.104;11.782;2023-12-20T00:49:25;95325.35;;;6.44;33.65
48156;BME280;35568;48.104;11.782;2023-12-20T00:51:52;95331.52;;;6.72;33.89
48156;BME280;35568;48.104;11.782;2023-12-20T00:54:19;95322.99;;;6.44;34.30
48156;BME280;35568;48.104;11.782;2023-12-20T00:56:45;95312.87;;;6.82;33.85
48156;BME280;35568;48.104;11.782;2023-12-20T00:59:12;95317.60;;;6.50;33.05
48156;BME280;35568;48.104;11.782;2023-12-20T01:01:40;95317.02;;;6.94;33.31
48156;BME280;35568;48.104;11.782;2023-12-20T01:04:07;95306.40;;;7.10;33.28
48156;BME280;35568;48.104;11.782;2023-12-20T01:06:34;95302.41;;;7.03;33.63
48156;BME280;35568;48.104;11.782;2023-12-20T01:09:01;95310.21;;;6.87;33.64
48156;BME280;35568;48.104;11.782;2023-12-20T01:11:28;95305.02;;;6.54;33.68
48156;BME280;35568;48.104;11.782;2023-12-20T01:13:55;95306.12;;;6.97;33.92
48156;BME280;35568;48.104;11.782;2023-12-20T01:16:22;95296.84;;;6.56;34.14
48156;BME280;35568;48.104;11.782;2023-12-20T01:18:48;95286.31;;;6.92;34.14
48156;BME280;35568;48.104;11.782;2023-12-20T01:21:16;95279.29;;;6.70;34.23
48156;BME280;35568;48.104;11.782;2023-12-20T01:23:43;95280.89;;;6.59;34.48
48156;BME280;35568;48.104;11.782;2023-12-20T01:26:10;95281.25;;;6.79;34.55
48156;BME280;35568;48.104;11.782;2023-12-20T01:28:37;95276.74;;;6.61;34.64
48156;BME280;35568;48.104;11.782;2023-12-20T01:31:04;95273.47;;;6.74;34.92
48156;BME280;35568;48.104;11.782;2023-12-20T01:33:31;95275.09;;;6.77;35.10
48156;BME280;35568;48.104;11.782;2023-12-20T01:35:58;95273.21;;;6.63;35.47
48156;BME280;35568;48.104;11.782;2023-12-20T01:38:24;95275.58;;;6.50;35.64
48156;BME280;35568;48.104;11.782;2023-12-20T01:40:51;95264.06;;;6.32;35.88
48156;BME280;35568;48.104;11.782;2023-12-20T01:43:18;95265.55;;;6.07;35.97
48156;BME280;35568;48.104;11.782;2023-12-20T01:45:45;95261.47;;;6.39;36.00
48156;BME280;35568;48.104;11.782;2023-12-20T01:48:13;95259.36;;;6.33;36.25
48156;BME280;35568;48.104;11.782;2023-12-20T01:50:42;95261.98;;;6.17;36.57
48156;BME280;35568;48.104;11.782;2023-12-20T01:53:11;95263.70;;;6.23;36.49
48156;BME280;35568;48.104;11.782;2023-12-20T01:55:40;95260.06;;;6.33;36.74
48156;BME280;35568;48.104;11.782;2023-12-20T01:58:08;95250.83;;;6.32;36.63
48156;BME280;35568;48.104;11.782;2023-12-20T02:00:36;95245.44;;;6.39;36.75
48156;BME280;35568;48.104;11.782;2023-12-20T02:03:04;95241.38;;;6.47;36.96
48156;BME280;35568;48.104;11.782;2023-12-20T02:05:31;95244.23;;;6.50;36.72
48156;BME280;35568;48.104;11.782;2023-12-20T02:07:59;95240.99;;;6.62;36.65
48156;BME280;35568;48.104;11.782;2023-12-20T02:10:26;95231.99;;;6.57;36.72
48156;BME280;35568;48.104;11.782;2023-12-20T02:12:54;95231.51;;;6.53;36.93
48156;BME280;35568;48.104;11.782;2023-12-20T02:15:22;95221.45;;;6.75;36.61
48156;BME280;35568;48.104;11.782;2023-12-20T02:17:50;95204.51;;;6.66;37.08
48156;BME280;35568;48.104;11.782;2023-12-20T02:20:17;95201.57;;;7.16;37.06
48156;BME280;35568;48.104;11.782;2023-12-20T02:22:45;95196.33;;;6.61;36.67
48156;BME280;35568;48.104;11.782;2023-12-20T02:25:12;95190.85;;;6.90;36.89
48156;BME280;35568;48.104;11.782;2023-12-20T02:27:40;95190.52;;;7.11;36.84
48156;BME280;35568;48.104;11.782;2023-12-20T02:30:09;95188.46;;;7.07;37.08
48156;BME280;35568;48.104;11.782;2023-12-20T02:32:37;95191.39;;;6.87;37.76
48156;BME280;35568;48.104;11.782;2023-12-20T02:35:04;95188.44;;;6.79;38.25
48156;BME280;35568;48.104;11.782;2023-12-20T02:37:33;95187.69;;;6.94;38.70
48156;BME280;35568;48.104;11.782;2023-12-20T02:40:00;95193.82;;;7.02;38.51
48156;BME280;35568;48.104;11.782;2023-12-20T02:42:28;95191.19;;;6.89;38.75
48156;BME280;35568;48.104;11.782;2023-12-20T02:44:55;95190.20;;;6.70;38.03
48156;BME280;35568;48.104;11.782;2023-12-20T02:47:23;95190.40;;;6.76;38.73
48156;BME280;35568;48.104;11.782;2023-12-20T02:49:50;95187.81;;;6.75;37.83
48156;BME280;35568;48.104;11.782;2023-12-20T02:52:18;95181.16;;;6.84;38.46
48156;BME280;35568;48.104;11.782;2023-12-20T02:54:45;95170.01;;;6.99;38.62
48156;BME280;35568;48.104;11.782;2023-12-20T02:57:12;95173.56;;;6.65;38.48
48156;BME280;35568;48.104;11.782;2023-12-20T02:59:40;95166.27;;;7.19;38.88
48156;BME280;35568;48.104;11.782;2023-12-20T03:02:07;95166.22;;;6.70;39.17
48156;BME280;35568;48.104;11.782;2023-12-20T03:04:35;95167.67;;;6.78;38.89
48156;BME280;35568;48.104;11.782;2023-12-20T03:07:02;95164.37;;;6.57;39.21
48156;BME280;35568;48.104;11.782;2023-12-20T03:09:29;95168.64;;;6.81;39.14
48156;BME280;35568;48.104;11.782;2023-12-20T03:11:56;95171.11;;;6.12;39.62
48156;BME280;35568;48.104;11.782;2023-12-20T03:14:24;95162.11;;;6.56;39.90
48156;BME280;35568;48.104;11.782;2023-12-20T03:16:51;95165.25;;;6.30;39.48
48156;BME280;35568;48.104;11.782;2023-12-20T03:19:18;95166.28;;;6.29;39.65
48156;BME280;35568;48.104;11.782;2023-12-20T03:21:45;95171.45;;;6.02;39.40
48156;BME280;35568;48.104;11.782;2023-12-20T03:24:13;95169.18;;;5.87;39.20
48156;BME280;35568;48.104;11.782;2023-12-20T03:26:40;95166.28;;;5.95;39.28
48156;BME280;35568;48.104;11.782;2023-12-20T03:29:07;95170.84;;;5.96;39.17
48156;BME280;35568;48.104;11.782;2023-12-20T03:31:34;95167.07;;;5.77;39.30
48156;BME280;35568;48.104;11.782;2023-12-20T03:34:00;95170.48;;;5.83;39.34
48156;BME280;35568;48.104;11.782;2023-12-20T03:36:27;95172.94;;;5.76;39.42
48156;BME280;35568;48.104;11.782;2023-12-20T03:38:54;95181.42;;;5.47;39.85
48156;BME280;35568;48.104;11.782;2023-12-20T03:41:21;95184.56;;;5.91;39.98
48156;BME280;35568;48.104;11.782;2023-12-20T03:43:48;95184.26;;;5.54;40.16
48156;BME280;35568;48.104;11.782;2023-12-20T03:46:15;95188.11;;;5.54;40.32
48156;BME280;35568;48.104;11.782;2023-12-20T03:48:42;95191.91;;;5.73;40.34
48156;BME280;35568;48.104;11.782;2023-12-20T03:51:09;95201.49;;;5.44;40.88
48156;BME280;35568;48.104;11.782;2023-12-20T03:53:36;95203.58;;;5.48;40.75
48156;BME280;35568;48.104;11.782;2023-12-20T03:56:03;95204.34;;;5.69;40.46
48156;BME280;35568;48.104;11.782;2023-12-20T03:58:31;95215.08;;;5.61;40.51
48156;BME280;35568;48.104;11.782;2023-12-20T04:03:01;95225.30;;;6.04;40.61
48156;BME280;35568;48.104;11.782;2023-12-20T04:05:28;95226.52;;;5.86;41.20
48156;BME280;35568;48.104;11.782;2023-12-20T04:07:55;95233.33;;;6.33;41.20
48156;BME280;35568;48.104;11.782;2023-12-20T04:10:22;95226.10;;;5.96;41.81
48156;BME280;35568;48.104;11.782;2023-12-20T04:12:49;95228.09;;;5.78;41.86
48156;BME280;35568;48.104;11.782;2023-12-20T04:15:16;95229.48;;;5.48;41.85
48156;BME280;35568;48.104;11.782;2023-12-20T04:17:43;95232.24;;;5.77;41.87
48156;BME280;35568;48.104;11.782;2023-12-20T04:20:11;95234.95;;;6.09;42.04
48156;BME280;35568;48.104;11.782;2023-12-20T04:22:38;95234.12;;;5.98;41.85
48156;BME280;35568;48.104;11.782;2023-12-20T04:25:06;95233.92;;;6.17;41.94
48156;BME280;35568;48.104;11.782;2023-12-20T04:27:33;95234.90;;;6.25;42.06
48156;BME280;35568;48.104;11.782;2023-12-20T04:30:00;95228.50;;;6.35;42.49
48156;BME280;35568;48.104;11.782;2023-12-20T04:32:27;95226.41;;;6.38;43.20
48156;BME280;35568;48.104;11.782;2023-12-20T04:34:54;95223.57;;;6.21;44.50
48156;BME280;35568;48.104;11.782;2023-12-20T04:37:21;95225.57;;;5.77;47.09
48156;BME280;35568;48.104;11.782;2023-12-20T04:39:47;95224.26;;;5.94;47.79
48156;BME280;35568;48.104;11.782;2023-12-20T04:42:14;95220.28;;;6.02;48.82
48156;BME280;35568;48.104;11.782;2023-12-20T04:44:42;95223.34;;;6.24;48.83
48156;BME280;35568;48.104;11.782;2023-12-20T04:47:09;95225.96;;;6.08;49.05
48156;BME280;35568;48.104;11.782;2023-12-20T04:49:36;95232.70;;;5.97;49.47
48156;BME280;35568;48.104;11.782;2023-12-20T04:52:03;95236.39;;;6.08;49.96
48156;BME280;35568;48.104;11.782;2023-12-20T04:54:31;95243.68;;;6.04;50.03
48156;BME280;35568;48.104;11.782;2023-12-20T04:56:58;95241.86;;;6.38;49.96
48156;BME280;35568;48.104;11.782;2023-12-20T04:59:25;95249.22;;;5.85;50.65
48156;BME280;35568;48.104;11.782;2023-12-20T05:01:52;95247.96;;;6.26;50.42
48156;BME280;35568;48.104;11.782;2023-12-20T05:04:18;95250.36;;;6.06;50.54
48156;BME280;35568;48.104;11.782;2023-12-20T05:06:45;95254.64;;;6.26;50.35
48156;BME280;35568;48.104;11.782;2023-12-20T05:09:12;95256.49;;;6.32;50.33
48156;BME280;35568;48.104;11.782;2023-12-20T05:11:40;95261.18;;;6.30;50.70
48156;BME280;35568;48.104;11.782;2023-12-20T05:14:07;95269.77;;;5.87;51.64
48156;BME280;35568;48.104;11.782;2023-12-20T05:16:33;95275.88;;;6.38;51.54
48156;BME280;35568;48.104;11.782;2023-12-20T05:19:00;95279.20;;;6.32;51.99
48156;BME280;35568;48.104;11.782;2023-12-20T05:21:27;95275.14;;;6.42;51.92
48156;BME280;35568;48.104;11.782;2023-12-20T05:23:54;95281.18;;;5.86;52.96
48156;BME280;35568;48.104;11.782;2023-12-20T05:26:21;95284.29;;;6.35;53.04
48156;BME280;35568;48.104;11.782;2023-12-20T05:28:48;95284.74;;;5.84;53.51
48156;BME280;35568;48.104;11.782;2023-12-20T05:31:15;95284.38;;;6.17;54.13
48156;BME280;35568;48.104;11.782;2023-12-20T05:33:42;95281.84;;;5.77;54.14
48156;BME280;35568;48.104;11.782;2023-12-20T05:36:09;95293.88;;;5.85;54.90
48156;BME280;35568;48.104;11.782;2023-12-20T05:38:36;95297.10;;;5.80;55.38
48156;BME280;35568;48.104;11.782;2023-12-20T05:41:03;95302.98;;;5.64;55.85
48156;BME280;35568;48.104;11.782;2023-12-20T05:43:30;95299.75;;;5.58;56.31
48156;BME280;35568;48.104;11.782;2023-12-20T05:45:57;95304.64;;;5.40;56.85
48156;BME280;35568;48.104;11.782;2023-12-20T05:48:24;95306.86;;;5.36;57.01
48156;BME280;35568;48.104;11.782;2023-12-20T05:50:51;95308.13;;;5.06;57.31
48156;BME280;35568;48.104;11.782;2023-12-20T05:53:18;95311.90;;;5.08;57.76
48156;BME280;35568;48.104;11.782;2023-12-20T05:55:45;95314.88;;;5.19;57.93
48156;BME280;35568;48.104;11.782;2023-12-20T05:58:11;95321.10;;;4.83;58.26
48156;BME280;35568;48.104;11.782;2023-12-20T06:00:38;95323.31;;;5.07;58.13
48156;BME280;35568;48.104;11.782;2023-12-20T06:03:05;95337.67;;;4.84;58.13
48156;BME280;35568;48.104;11.782;2023-12-20T06:05:34;95334.48;;;4.94;58.27
48156;BME280;35568;48.104;11.782;2023-12-20T06:08:01;95329.28;;;4.87;58.34
48156;BME280;35568;48.104;11.782;2023-12-20T06:10:28;95338.60;;;5.24;58.30
48156;BME280;35568;48.104;11.782;2023-12-20T06:12:56;95345.05;;;4.81;58.13
48156;BME280;35568;48.104;11.782;2023-12-20T06:15:23;95341.61;;;4.64;58.88
48156;BME280;35568;48.104;11.782;2023-12-20T06:17:51;95341.25;;;5.00;58.53
48156;BME280;35568;48.104;11.782;2023-12-20T06:20:17;95346.82;;;5.05;58.23
48156;BME280;35568;48.104;11.782;2023-12-20T06:22:44;95348.59;;;5.10;58.36
48156;BME280;35568;48.104;11.782;2023-12-20T06:25:11;95349.38;;;5.26;58.27
48156;BME280;35568;48.104;11.782;2023-12-20T06:27:39;95356.15;;;4.86;58.24
48156;BME280;35568;48.104;11.782;2023-12-20T06:30:06;95355.62;;;4.89;57.95
48156;BME280;35568;48.104;11.782;2023-12-20T06:32:33;95362.86;;;4.90;57.86
48156;BME280;35568;48.104;11.782;2023-12-20T06:35:00;95373.55;;;4.61;58.02
48156;BME280;35568;48.104;11.782;2023-12-20T06:37:28;95360.28;;;4.27;58.76
48156;BME280;35568;48.104;11.782;2023-12-20T06:39:55;95367.94;;;4.50;59.09
48156;BME280;35568;48.104;11.782;2023-12-20T06:42:22;95370.01;;;4.45;58.54
48156;BME280;35568;48.104;11.782;2023-12-20T06:44:51;95376.79;;;4.31;58.87
48156;BME280;35568;48.104;11.782;2023-12-20T06:47:18;95381.13;;;4.01;59.11
48156;BME280;35568;48.104;11.782;2023-12-20T06:49:45;95384.84;;;4.36;59.11
48156;BME280;35568;48.104;11.782;2023-12-20T06:52:12;95389.05;;;4.52;58.81
48156;BME280;35568;48.104;11.782;2023-12-20T06:54:39;95390.77;;;4.28;58.96
48156;BME280;35568;48.104;11.782;2023-12-20T06:57:05;95393.26;;;4.20;58.41
48156;BME280;35568;48.104;11.782;2023-12-20T06:59:32;95399.65;;;3.81;59.11
48156;BME280;35568;48.104;11.782;2023-12-20T07:02:00;95403.35;;;3.93;59.32
48156;BME280;35568;48.104;11.782;2023-12-20T07:04:27;95408.36;;;4.04;59.41
48156;BME280;35568;48.104;11.782;2023-12-20T07:06:54;95408.72;;;3.75;59.81
48156;BME280;35568;48.104;11.782;2023-12-20T07:09:21;95408.73;;;3.65;59.83
48156;BME280;35568;48.104;11.782;2023-12-20T07:11:48;95411.81;;;3.76;60.26
48156;BME280;35568;48.104;11.782;2023-12-20T07:14:15;95411.60;;;3.58;59.92
48156;BME280;35568;48.104;11.782;2023-12-20T07:16:42;95415.88;;;4.00;59.45
48156;BME280;35568;48.104;11.782;2023-12-20T07:19:09;95413.12;;;3.80;59.39
48156;BME280;35568;48.104;11.782;2023-12-20T07:21:36;95421.97;;;3.95;59.17
48156;BME280;35568;48.104;11.782;2023-12-20T07:24:03;95429.63;;;4.04;58.92
48156;BME280;35568;48.104;11.782;2023-12-20T07:26:30;95435.30;;;4.04;58.85
48156;BME280;35568;48.104;11.782;2023-12-20T07:28:56;95445.09;;;3.86;59.28
48156;BME280;35568;48.104;11.782;2023-12-20T07:31:23;95434.41;;;3.39;59.82
48156;BME280;35568;48.104;11.782;2023-12-20T07:33:50;95439.63;;;3.41;59.85
48156;BME280;35568;48.104;11.782;2023-12-20T07:36:19;95447.86;;;3.67;59.74
48156;BME280;35568;48.104;11.782;2023-12-20T07:38:46;95447.61;;;3.43;60.07
48156;BME280;35568;48.104;11.782;2023-12-20T07:41:13;95449.28;;;3.60;59.59
48156;BME280;35568;48.104;11.782;2023-12-20T07:43:41;95450.55;;;3.85;59.74
48156;BME280;35568;48.104;11.782;2023-12-20T07:46:09;95450.16;;;3.28;60.19
48156;BME280;35568;48.104;11.782;2023-12-20T07:48:36;95452.45;;;3.46;59.96
48156;BME280;35568;48.104;11.782;2023-12-20T07:51:04;95448.64;;;3.39;60.40
48156;BME280;35568;48.104;11.782;2023-12-20T07:53:32;95447.80;;;3.86;59.47
48156;BME280;35568;48.104;11.782;2023-12-20T07:55:59;95446.50;;;3.69;59.83
48156;BME280;35568;48.104;11.782;2023-12-20T07:58:26;95450.96;;;3.53;60.23
48156;BME280;35568;48.104;11.782;2023-12-20T08:00:53;95450.70;;;3.65;60.11
48156;BME280;35568;48.104;11.782;2023-12-20T08:03:21;95452.82;;;3.08;60.73
48156;BME280;35568;48.104;11.782;2023-12-20T08:05:48;95449.19;;;3.49;60.06
48156;BME280;35568;48.104;11.782;2023-12-20T08:08:15;95454.90;;;3.48;60.45
48156;BME280;35568;48.104;11.782;2023-12-20T08:10:42;95454.52;;;3.56;61.16
48156;BME280;35568;48.104;11.782;2023-12-20T08:13:09;95459.98;;;3.23;60.68
48156;BME280;35568;48.104;11.782;2023-12-20T08:15:35;95458.35;;;3.40;60.28
48156;BME280;35568;48.104;11.782;2023-12-20T08:18:03;95462.72;;;4.21;59.79
48156;BME280;35568;48.104;11.782;2023-12-20T08:20:30;95468.22;;;4.16;59.29
48156;BME280;35568;48.104;11.782;2023-12-20T08:22:57;95463.32;;;3.65;60.23
48156;BME280;35568;48.104;11.782;2023-12-20T08:25:24;95469.73;;;3.69;59.58
48156;BME280;35568;48.104;11.782;2023-12-20T08:27:52;95471.06;;;3.63;59.95
48156;BME280;35568;48.104;11.782;2023-12-20T08:30:19;95475.66;;;3.91;59.47
48156;BME280;35568;48.104;11.782;2023-12-20T08:32:46;95482.85;;;4.03;59.23
48156;BME280;35568;48.104;11.782;2023-12-20T08:35:14;95481.59;;;4.00;59.04
48156;BME280;35568;48.104;11.782;2023-12-20T08:37:41;95488.45;;;4.27;59.13
48156;BME280;35568;48.104;11.782;2023-12-20T08:40:08;95486.95;;;4.24;58.90
48156;BME280;35568;48.104;11.782;2023-12-20T08:42:36;95488.12;;;4.29;59.18
48156;BME280;35568;48.104;11.782;2023-12-20T08:45:03;95487.27;;;3.84;59.26
48156;BME280;35568;48.104;11.782;2023-12-20T08:47:31;95486.07;;;3.85;59.90
48156;BME280;35568;48.104;11.782;2023-12-20T08:49:58;95488.08;;;3.67;59.88
48156;BME280;35568;48.104;11.782;2023-12-20T08:52:25;95485.10;;;3.48;60.00
48156;BME280;35568;48.104;11.782;2023-12-20T08:54:52;95490.52;;;3.55;61.11
48156;BME280;35568;48.104;11.782;2023-12-20T08:57:20;95489.60;;;3.64;60.90
48156;BME280;35568;48.104;11.782;2023-12-20T08:59:48;95491.12;;;3.73;60.16
48156;BME280;35568;48.104;11.782;2023-12-20T09:02:16;95483.61;;;3.65;60.14
48156;BME280;35568;48.104;11.782;2023-12-20T09:04:43;95486.15;;;3.75;59.94
48156;BME280;35568;48.104;11.782;2023-12-20T09:07:22;95482.71;;;3.58;60.21
48156;BME280;35568;48.104;11.782;2023-12-20T09:09:50;95483.97;;;3.78;60.04
48156;BME280;35568;48.104;11.782;2023-12-20T09:12:18;95482.12;;;3.81;59.64
48156;BME280;35568;48.104;11.782;2023-12-20T09:14:45;95484.19;;;3.80;59.96
48156;BME280;35568;48.104;11.782;2023-12-20T09:17:13;95475.79;;;3.82;60.07
48156;BME280;35568;48.104;11.782;2023-12-20T09:19:40;95477.10;;;4.00;59.44
48156;BME280;35568;48.104;11.782;2023-12-20T09:22:06;95473.98;;;4.06;59.37
48156;BME280;35568;48.104;11.782;2023-12-20T09:24:33;95476.49;;;4.00;59.42
48156;BME280;35568;48.104;11.782;2023-12-20T09:27:00;95483.48;;;4.38;59.15
48156;BME280;35568;48.104;11.782;2023-12-20T09:29:27;95486.45;;;4.00;59.13
48156;BME280;35568;48.104;11.782;2023-12-20T09:31:54;95483.44;;;3.97;59.62
48156;BME280;35568;48.104;11.782;2023-12-20T09:34:21;95481.10;;;4.36;59.23
48156;BME280;35568;48.104;11.782;2023-12-20T09:36:48;95484.67;;;4.37;58.72
48156;BME280;35568;48.104;11.782;2023-12-20T09:39:17;95490.45;;;4.56;58.51
48156;BME280;35568;48.104;11.782;2023-12-20T09:41:45;95478.86;;;4.33;58.43
48156;BME280;35568;48.104;11.782;2023-12-20T09:44:16;95473.24;;;4.49;58.59
48156;BME280;35568;48.104;11.782;2023-12-20T09:46:46;95466.30;;;4.11;59.12
48156;BME280;35568;48.104;11.782;2023-12-20T09:49:17;95476.34;;;4.35;58.89
48156;BME280;35568;48.104;11.782;2023-12-20T09:51:46;95483.49;;;4.22;58.63
48156;BME280;35568;48.104;11.782;2023-12-20T09:54:15;95471.81;;;4.21;58.73
48156;BME280;35568;48.104;11.782;2023-12-20T09:56:44;95472.60;;;4.57;58.75
48156;BME280;35568;48.104;11.782;2023-12-20T09:59:11;95471.46;;;4.19;59.11
48156;BME280;35568;48.104;11.782;2023-12-20T10:01:40;95460.29;;;4.12;59.57
48156;BME280;35568;48.104;11.782;2023-12-20T10:04:09;95465.18;;;4.27;59.40
48156;BME280;35568;48.104;11.782;2023-12-20T10:06:37;95469.08;;;4.33;58.83
48156;BME280;35568;48.104;11.782;2023-12-20T10:09:04;95464.15;;;4.16;58.57
48156;BME280;35568;48.104;11.782;2023-12-20T10:11:31;95458.54;;;4.35;58.68
48156;BME280;35568;48.104;11.782;2023-12-20T10:13:59;95459.57;;;4.51;58.87
48156;BME280;35568;48.104;11.782;2023-12-20T10:16:27;95464.69;;;4.68;58.52
48156;BME280;35568;48.104;11.782;2023-12-20T10:18:54;95460.22;;;4.58;58.56
48156;BME280;35568;48.104;11.782;2023-12-20T10:21:23;95456.58;;;4.69;58.68
48156;BME280;35568;48.104;11.782;2023-12-20T10:23:50;95456.56;;;4.57;58.47
48156;BME280;35568;48.104;11.782;2023-12-20T10:26:20;95456.60;;;4.80;58.41
48156;BME280;35568;48.104;11.782;2023-12-20T10:28:51;95448.22;;;4.81;58.01
48156;BME280;35568;48.104;11.782;2023-12-20T10:31:27;95448.12;;;5.12;57.66
48156;BME280;35568;48.104;11.782;2023-12-20T10:33:57;95451.71;;;5.15;57.87
48156;BME280;35568;48.104;11.782;2023-12-20T10:36:26;95450.50;;;4.46;58.47
48156;BME280;35568;48.104;11.782;2023-12-20T10:38:54;95445.24;;;4.88;58.15
48156;BME280;35568;48.104;11.782;2023-12-20T10:41:25;95444.04;;;4.93;58.18
48156;BME280;35568;48.104;11.782;2023-12-20T10:43:55;95448.88;;;4.86;57.31
48156;BME280;35568;48.104;11.782;2023-12-20T10:46:22;95444.96;;;5.14;57.76
48156;BME280;35568;48.104;11.782;2023-12-20T10:48:52;95442.27;;;4.85;57.74
48156;BME280;35568;48.104;11.782;2023-12-20T10:51:20;95441.81;;;5.25;58.09
48156;BME280;35568;48.104;11.782;2023-12-20T10:53:49;95442.28;;;5.31;57.38
48156;BME280;35568;48.104;11.782;2023-12-20T10:56:17;95439.43;;;4.86;57.52
48156;BME280;35568;48.104;11.782;2023-12-20T10:58:45;95437.48;;;4.72;57.56
48156;BME280;35568;48.104;11.782;2023-12-20T11:01:14;95437.06;;;5.09;57.59
48156;BME280;35568;48.104;11.782;2023-12-20T11:03:46;95436.12;;;5.06;56.80
48156;BME280;35568;48.104;11.782;2023-12-20T11:06:29;95429.71;;;5.35;57.01
48156;BME280;35568;48.104;11.782;2023-12-20T11:09:08;95427.18;;;5.07;56.94
48156;BME280;35568;48.104;11.782;2023-12-20T11:11:59;95425.14;;;4.93;56.82
48156;BME280;35568;48.104;11.782;2023-12-20T11:14:35;95425.90;;;5.06;57.20
48156;BME280;35568;48.104;11.782;2023-12-20T11:17:09;95421.31;;;5.43;56.96
48156;BME280;35568;48.104;11.782;2023-12-20T11:20:04;95425.70;;;5.37;57.10
48156;BME280;35568;48.104;11.782;2023-12-20T11:22:32;95422.82;;;5.35;56.83
48156;BME280;35568;48.104;11.782;2023-12-20T11:25:04;95424.54;;;5.17;57.00
48156;BME280;35568;48.104;11.782;2023-12-20T11:27:31;95417.36;;;5.22;57.36
48156;BME280;35568;48.104;11.782;2023-12-20T11:29:59;95407.37;;;5.17;56.97
48156;BME280;35568;48.104;11.782;2023-12-20T11:32:30;95407.19;;;5.19;57.07
48156;BME280;35568;48.104;11.782;2023-12-20T11:34:59;95410.03;;;5.52;56.52
48156;BME280;35568;48.104;11.782;2023-12-20T11:37:30;95410.08;;;5.55;56.52
48156;BME280;35568;48.104;11.782;2023-12-20T11:40:02;95408.78;;;5.45;57.05
48156;BME280;35568;48.104;11.782;2023-12-20T11:42:33;95401.34;;;5.24;57.02
48156;BME280;35568;48.104;11.782;2023-12-20T11:45:02;95401.24;;;5.28;56.26
48156;BME280;35568;48.104;11.782;2023-12-20T11:47:30;95402.40;;;5.88;55.43
48156;BME280;35568;48.104;11.782;2023-12-20T11:49:57;95403.87;;;6.12;55.49
48156;BME280;35568;48.104;11.782;2023-12-20T11:52:24;95399.67;;;6.01;54.90
48156;BME280;35568;48.104;11.782;2023-12-20T11:54:51;95398.16;;;5.85;54.47
48156;BME280;35568;48.104;11.782;2023-12-20T11:57:18;95389.97;;;5.75;54.80
48156;BME280;35568;48.104;11.782;2023-12-20T11:59:46;95394.49;;;5.60;55.33
48156;BME280;35568;48.104;11.782;2023-12-20T12:02:13;95396.75;;;5.96;55.36
48156;BME280;35568;48.104;11.782;2023-12-20T12:04:41;95392.85;;;5.44;55.30
48156;BME280;35568;48.104;11.782;2023-12-20T12:07:08;95394.96;;;5.87;55.03
48156;BME280;35568;48.104;11.782;2023-12-20T12:09:35;95394.20;;;6.05;55.34
48156;BME280;35568;48.104;11.782;2023-12-20T12:12:03;95390.60;;;5.79;55.06
48156;BME280;35568;48.104;11.782;2023-12-20T12:14:30;95388.13;;;5.66;54.61
48156;BME280;35568;48.104;11.782;2023-12-20T12:16:58;95385.11;;;5.38;54.97
48156;BME280;35568;48.104;11.782;2023-12-20T12:19:26;95384.25;;;6.08;55.04
48156;BME280;35568;48.104;11.782;2023-12-20T12:22:05;95385.51;;;5.78;54.99
48156;BME280;35568;48.104;11.782;2023-12-20T12:24:33;95374.72;;;6.01;55.32
48156;BME280;35568;48.104;11.782;2023-12-20T12:27:01;95373.71;;;5.72;55.33
48156;BME280;35568;48.104;11.782;2023-12-20T12:29:29;95371.87;;;5.48;55.79
48156;BME280;35568;48.104;11.782;2023-12-20T12:31:56;95373.07;;;5.52;55.35
48156;BME280;35568;48.104;11.782;2023-12-20T12:34:23;95372.68;;;5.23;55.33
48156;BME280;35568;48.104;11.782;2023-12-20T12:36:51;95372.05;;;5.37;55.60
48156;BME280;35568;48.104;11.782;2023-12-20T12:39:18;95375.52;;;4.87;55.41
48156;BME280;35568;48.104;11.782;2023-12-20T12:41:45;95376.44;;;4.68;55.88
48156;BME280;35568;48.104;11.782;2023-12-20T12:44:13;95375.46;;;4.98;55.84
48156;BME280;35568;48.104;11.782;2023-12-20T12:46:40;95373.65;;;5.21;55.67
48156;BME280;35568;48.104;11.782;2023-12-20T12:49:07;95373.09;;;5.92;54.77
48156;BME280;35568;48.104;11.782;2023-12-20T12:51:35;95368.93;;;5.39;54.89
48156;BME280;35568;48.104;11.782;2023-12-20T12:54:02;95368.27;;;5.72;54.39
48156;BME280;35568;48.104;11.782;2023-12-20T12:56:29;95366.98;;;5.82;54.47
48156;BME280;35568;48.104;11.782;2023-12-20T12:58:57;95359.02;;;5.48;54.70
48156;BME280;35568;48.104;11.782;2023-12-20T13:01:23;95358.12;;;5.39;54.87
48156;BME280;35568;48.104;11.782;2023-12-20T13:03:50;95351.66;;;5.10;55.45